createdAt,value
2022-12-01T00:03:12.940Z,5.258432404891304
2022-12-01T00:14:13.500Z,5.19147810409699
2022-12-01T00:20:42.812Z,5.324378788670568
2022-12-01T00:27:10.816Z,5.313655544523412
2022-12-01T00:33:38.550Z,5.190500888377927
2022-12-01T00:40:07.501Z,5.160041283444816
2022-12-01T00:48:15.634Z,5.180611151755852
2022-12-01T00:54:44.278Z,5.2106722930602
2022-12-01T01:06:44.042Z,5.147973714464883
2022-12-01T01:17:13.943Z,5.180180680392977
2022-12-01T01:23:42.028Z,5.162754755434782
2022-12-01T01:30:09.439Z,5.167294627926422
2022-12-01T01:36:36.559Z,5.229805079431439
2022-12-01T01:43:21.845Z,5.197912965091972
2022-12-01T01:50:18.794Z,5.205865253971572
2022-12-01T02:04:51.903Z,5.166472225125418
2022-12-01T02:12:08.221Z,5.175028088419732
2022-12-01T02:25:47.552Z,5.185757211538461
2022-12-01T02:37:33.229Z,5.221752848035117
2022-12-01T02:44:00.269Z,5.23907164506689
2022-12-01T02:50:26.978Z,5.25309364548495
2022-12-01T02:56:54.552Z,5.253599237040134
2022-12-01T03:03:21.746Z,5.233339647784281
2022-12-01T03:09:49.389Z,5.213134928929766
2022-12-01T03:23:45.968Z,5.0707717130016725
2022-12-01T03:30:12.428Z,5.19343122909699
2022-12-01T03:48:27.375Z,5.182609348871238
2022-12-01T03:56:29.250Z,5.157463027801003
2022-12-01T04:02:56.031Z,5.111989182692307
2022-12-01T04:13:27.440Z,5.164293086329431
2022-12-01T04:19:53.593Z,5.076213027801003
2022-12-01T04:26:20.021Z,5.128909516095318
2022-12-01T04:44:31.576Z,5.128114548494983
2022-12-01T04:55:23.769Z,5.125097982859532
2022-12-01T05:01:52.779Z,5.147866586538462
2022-12-01T05:08:20.106Z,5.146984740802676
2022-12-01T05:18:09.319Z,5.175512776964883
2022-12-01T05:24:36.665Z,5.163973662207357
2022-12-01T05:31:02.957Z,5.166654473244147
2022-12-01T05:37:30.687Z,5.180661449623746
2022-12-01T05:48:03.211Z,5.095142009824415
2022-12-01T05:54:30.216Z,5.1337851431856185
2022-12-01T06:03:38.450Z,5.021855403428094
2022-12-01T06:13:41.204Z,5.0938486360785955
2022-12-01T06:20:07.938Z,5.0578053145903015
2022-12-01T06:26:42.304Z,5.002493337165552
2022-12-01T06:33:11.410Z,5.041057431020066
2022-12-01T06:47:54.665Z,5.019803642349498
2022-12-01T06:54:22.347Z,5.0495296822742475
2022-12-01T07:00:52.540Z,4.88359375
2022-12-01T07:07:22.535Z,4.880103600543478
2022-12-01T07:17:54.433Z,4.88965954222408
2022-12-01T07:24:23.249Z,4.8971859322742475
2022-12-01T07:30:51.500Z,4.856271556229096
2022-12-01T07:37:19.115Z,4.931037050585283
2022-12-01T07:43:47.907Z,4.979884118938127
2022-12-01T07:50:15.801Z,4.927787285744147
2022-12-01T07:56:44.550Z,4.858371655518394
2022-12-01T08:03:13.033Z,4.94530139527592
2022-12-01T08:11:41.646Z,4.856856840510034
2022-12-01T08:23:07.189Z,4.755577184364549
2022-12-01T08:44:15.473Z,4.907687735158863
2022-12-01T08:57:05.034Z,4.897219246446488
2022-12-01T09:03:34.679Z,4.740429034280937
2022-12-01T09:10:03.459Z,4.615183423913043
2022-12-01T09:16:33.017Z,4.672733983068562
2022-12-01T09:23:02.190Z,4.671223087374582
2022-12-01T09:41:27.182Z,4.7273509354096985
2022-12-01T09:52:00.188Z,4.790866691053512
2022-12-01T10:03:10.332Z,4.754821409908027
2022-12-01T10:09:39.875Z,4.722850256061872
2022-12-01T10:16:08.698Z,4.715233068561873
2022-12-01T10:28:07.749Z,4.7857493729097
2022-12-01T10:42:56.143Z,4.7543445599916385
2022-12-01T10:49:24.613Z,4.777708246237458
2022-12-01T10:59:12.787Z,5.063552335911371
2022-12-01T11:05:41.826Z,5.072303511705686
2022-12-01T11:12:10.559Z,5.173025318770904
2022-12-01T11:28:06.068Z,5.219851980560201
2022-12-01T11:38:27.188Z,5.015022078804347
2022-12-01T11:49:25.712Z,5.00760412311873
2022-12-01T11:55:54.572Z,5.097738555602007
2022-12-01T12:02:23.730Z,5.135984531772575
2022-12-01T12:14:50.629Z,5.111872256479933
2022-12-01T12:27:25.828Z,5.18496289715719
2022-12-01T12:33:55.004Z,5.384222799958194
2022-12-01T12:40:24.060Z,5.430901181020066
2022-12-01T12:46:52.638Z,5.342019622700668
2022-12-01T12:53:21.626Z,5.169974785744148
2022-12-01T13:10:33.828Z,5.133709369774248
2022-12-01T13:18:06.596Z,5.073060592600334
2022-12-01T13:24:35.728Z,5.1139775815217385
2022-12-01T13:31:04.378Z,5.015561637750836
2022-12-01T13:37:32.554Z,4.831518473035117
2022-12-01T13:43:59.971Z,4.787414428302676
2022-12-01T13:50:29.991Z,4.843280988712375
2022-12-01T14:15:55.371Z,4.472102973453177
2022-12-01T14:22:23.969Z,4.515562290969899
2022-12-01T14:36:39.556Z,4.543038644439799
2022-12-01T14:43:15.113Z,4.486578961120401
2022-12-01T14:52:00.262Z,4.373789585075251
2022-12-01T14:58:28.041Z,4.397315922867893
2022-12-01T15:06:05.052Z,4.388633988294314
2022-12-01T15:18:55.784Z,4.278693300585285
2022-12-01T15:29:49.803Z,4.402763769857859
2022-12-01T15:36:17.967Z,4.389894047867893
2022-12-01T15:42:46.169Z,4.49690439485786
2022-12-01T15:49:13.013Z,4.38019962374582
2022-12-01T16:03:30.454Z,4.253253030936455
2022-12-01T16:11:04.025Z,4.259556594899665
2022-12-01T16:17:31.679Z,4.15500627090301
2022-12-01T16:23:58.912Z,4.03248262437291
2022-12-01T16:36:40.771Z,3.979466711956522
2022-12-01T16:43:08.543Z,3.7987379807692303
2022-12-01T16:50:03.456Z,3.7681973766722403
2022-12-01T17:00:05.536Z,3.8036665186036784
2022-12-01T17:06:34.426Z,3.685094847408027
2022-12-01T17:13:01.222Z,3.5862445129598663
2022-12-01T17:22:12.308Z,3.5862693352842814
2022-12-01T17:30:03.536Z,3.6754167537625415
2022-12-01T17:36:35.725Z,3.739123249372909
2022-12-01T17:46:10.451Z,3.7063153219063545
2022-12-01T17:52:44.926Z,3.652784672867893
2022-12-01T17:59:13.095Z,3.6282674017558527
2022-12-01T18:05:42.967Z,3.558938649665552
2022-12-01T18:15:13.246Z,3.588217234531772
2022-12-01T18:24:32.532Z,3.496138822115384
2022-12-01T18:31:04.406Z,3.508212270066889
2022-12-01T18:37:38.285Z,3.4884974655100325
2022-12-01T18:44:09.940Z,3.4907478051839465
2022-12-01T18:56:15.376Z,3.2715921561454855
2022-12-01T19:11:30.328Z,3.417677414297659
2022-12-01T19:18:08.263Z,3.3284731657608697
2022-12-01T19:24:52.980Z,3.1447330946906358
2022-12-01T19:31:42.342Z,3.1648620401337793
2022-12-01T19:38:22.493Z,3.234130696070234
2022-12-01T19:44:59.953Z,3.1711251045150504
2022-12-01T19:51:32.022Z,3.222786893812709
2022-12-01T19:58:02.017Z,3.2525011757943147
2022-12-01T20:04:35.331Z,3.2591685827759194
2022-12-01T20:11:17.639Z,3.217724446070234
2022-12-01T20:18:00.268Z,3.232457802048495
2022-12-01T20:24:34.561Z,3.1820332096571904
2022-12-01T20:31:05.020Z,3.1986197481187295
2022-12-01T20:51:50.147Z,3.1072461590719063
2022-12-01T20:58:19.433Z,3.130013456312709
2022-12-01T21:04:52.278Z,3.093800297867893
2022-12-01T21:17:17.447Z,3.157448003762542
2022-12-01T21:24:06.989Z,3.09097316576087
2022-12-01T21:31:49.850Z,3.0056784333193978
2022-12-01T21:40:05.339Z,2.9464216659698996
2022-12-01T21:56:04.980Z,3.093438414506689
2022-12-01T22:06:47.484Z,3.1565687709030104
2022-12-01T22:13:27.049Z,3.1398248066471575
2022-12-01T22:23:52.096Z,2.9179654839046822
2022-12-01T22:34:36.165Z,3.0359753867056853
2022-12-01T22:41:11.976Z,3.004955973035117
2022-12-01T22:47:41.292Z,2.978292877299331
2022-12-01T23:05:03.698Z,2.9922769910117055
2022-12-01T23:14:49.210Z,3.0353940217391306
2022-12-01T23:24:55.509Z,3.0656864025919734
2022-12-01T23:31:26.036Z,3.134454039506689
2022-12-01T23:37:54.008Z,3.1679635242474915
2022-12-01T23:51:02.298Z,3.0560801630434784
